Time;durP1;ratioP1;P1;durP2;ratioP2;P2;SDS_P1;SDS_P2;PMS_P1;PMS_P2;Temp;Humidity;BMP_temperature;BMP_pressure;BME280_temperature;BME280_humidity;BME280_pressure;Samples;Min_cycle;Max_cycle;Signal;HPM_P1;HPM_P2
2022/01/13 00:02:23;;;;;;;34.40;23.13;;;-1.60;99.90;;;;;;5016758;28;20226;-77
2022/01/13 00:04:50;;;;;;;37.07;23.93;;;-1.50;99.90;;;;;;5019038;28;20214;-77
2022/01/13 00:07:17;;;;;;;39.33;24.97;;;-1.30;99.90;;;;;;5018833;28;20218;-77
2022/01/13 00:09:44;;;;;;;36.50;24.50;;;-1.30;99.90;;;;;;5010391;28;20254;-77
2022/01/13 00:12:13;;;;;;;36.57;24.33;;;-1.20;99.90;;;;;;4994635;28;20294;-76
2022/01/13 00:14:54;;;;;;;35.10;23.63;;;-1.10;99.90;;;;;;4994903;28;20338;-77
2022/01/13 00:17:31;;;;;;;37.07;23.67;;;-1.10;99.90;;;;;;4994270;28;20208;-77
2022/01/13 00:20:20;;;;;;;37.07;23.97;;;-1.10;99.90;;;;;;4994298;28;20246;-77
2022/01/13 00:23:38;;;;;;;34.70;23.60;;;-1.00;99.90;;;;;;4994309;28;20200;-78
2022/01/13 00:25:38;;;;;;;33.50;23.40;;;-1.00;99.90;;;;;;4993888;28;20718;-78
2022/01/13 00:28:14;;;;;;;36.80;24.50;;;-1.00;99.90;;;;;;4993712;28;20199;-77
2022/01/13 00:30:41;;;;;;;35.93;23.20;;;-0.90;99.90;;;;;;4993715;28;20204;-78
2022/01/13 00:33:10;;;;;;;36.77;23.83;;;-0.90;99.90;;;;;;4993842;28;20215;-77
2022/01/13 00:35:37;;;;;;;37.33;23.87;;;-1.00;99.90;;;;;;4994658;28;20203;-77
2022/01/13 00:38:04;;;;;;;35.00;23.80;;;-1.00;99.90;;;;;;4993703;28;20207;-77
2022/01/13 00:40:36;;;;;;;36.30;23.87;;;-1.00;99.90;;;;;;4995299;28;20199;-80
2022/01/13 00:43:03;;;;;;;34.80;22.80;;;-0.90;99.90;;;;;;5003679;28;20204;-79
2022/01/13 00:45:31;;;;;;;35.67;24.63;;;-0.90;99.90;;;;;;5003918;28;20219;-79
2022/01/13 00:47:58;;;;;;;35.73;24.83;;;-0.90;99.90;;;;;;5003268;28;20247;-79
2022/01/13 00:50:25;;;;;;;37.77;25.60;;;-0.90;99.90;;;;;;5004685;28;20200;-80
2022/01/13 00:52:55;;;;;;;36.50;24.53;;;-1.00;99.90;;;;;;4999528;28;20199;-77
2022/01/13 00:55:30;;;;;;;37.83;23.93;;;-1.00;99.90;;;;;;4996432;28;20203;-79
2022/01/13 00:57:57;;;;;;;35.50;24.47;;;-1.00;99.90;;;;;;4993566;28;20273;-77
2022/01/13 01:00:30;;;;;;;34.80;24.37;;;-1.10;99.90;;;;;;4999597;28;20199;-78
2022/01/13 01:02:58;;;;;;;33.27;22.73;;;-1.10;99.90;;;;;;5004017;28;20265;-78
2022/01/13 01:05:25;;;;;;;37.10;23.80;;;-1.10;99.90;;;;;;4997803;28;20200;-77
2022/01/13 01:07:52;;;;;;;35.47;23.23;;;-1.10;99.90;;;;;;4997950;28;20568;-78
2022/01/13 01:10:19;;;;;;;34.83;23.73;;;-1.00;99.90;;;;;;4997033;28;20679;-78
2022/01/13 01:12:46;;;;;;;36.07;24.20;;;-1.10;99.90;;;;;;4998089;28;20199;-78
2022/01/13 01:15:14;;;;;;;35.40;24.03;;;-1.00;99.90;;;;;;5008008;28;20200;-79
2022/01/13 01:17:47;;;;;;;39.43;24.03;;;-0.90;99.90;;;;;;4998389;28;20265;-79
2022/01/13 01:20:16;;;;;;;34.37;23.40;;;-0.90;99.90;;;;;;4996683;28;20676;-79
2022/01/13 01:22:57;;;;;;;37.63;24.03;;;-0.90;99.90;;;;;;4996748;28;20204;-76
2022/01/13 01:25:41;;;;;;;36.90;23.93;;;-0.90;99.90;;;;;;4996730;28;20555;-78
2022/01/13 01:28:15;;;;;;;33.70;23.33;;;-1.00;99.90;;;;;;4996660;28;20234;-77
2022/01/13 01:30:44;;;;;;;37.77;25.23;;;-1.00;99.90;;;;;;4996953;28;20249;-76
2022/01/13 01:33:15;;;;;;;35.00;24.83;;;-1.10;99.90;;;;;;4996794;28;20199;-77
2022/01/13 01:35:43;;;;;;;40.17;26.50;;;-1.20;99.90;;;;;;4997222;28;20199;-77
2022/01/13 01:38:10;;;;;;;41.80;27.33;;;-1.30;99.90;;;;;;5004375;28;20203;-79
2022/01/13 01:40:39;;;;;;;39.83;26.43;;;-1.40;99.90;;;;;;5004076;28;20207;-77
2022/01/13 01:43:06;;;;;;;39.83;25.40;;;-1.50;99.90;;;;;;4996767;28;20200;-78
2022/01/13 01:45:42;;;;;;;39.70;25.83;;;-1.60;99.90;;;;;;4996435;28;20200;-77
2022/01/13 01:48:09;;;;;;;41.27;26.47;;;-1.70;99.90;;;;;;4996223;28;20227;-77
2022/01/13 01:50:38;;;;;;;41.00;26.50;;;-1.80;99.90;;;;;;4996357;28;20206;-76
2022/01/13 01:53:07;;;;;;;39.90;25.80;;;-1.90;99.90;;;;;;4996403;28;20242;-77
2022/01/13 01:55:34;;;;;;;47.10;28.57;;;-2.00;99.90;;;;;;4997369;28;20196;-77
2022/01/13 01:58:00;;;;;;;42.23;27.80;;;-1.90;99.90;;;;;;4996189;28;20713;-78
2022/01/13 02:00:27;;;;;;;46.57;28.33;;;-2.00;99.90;;;;;;4996447;28;20214;-77
2022/01/13 02:02:56;;;;;;;39.47;26.60;;;-2.00;99.90;;;;;;4997847;28;20196;-78
2022/01/13 02:05:23;;;;;;;46.43;28.03;;;-2.00;99.90;;;;;;4995961;28;20743;-77
2022/01/13 02:07:49;;;;;;;43.63;28.20;;;-1.90;99.90;;;;;;4996224;28;20227;-78
2022/01/13 02:10:18;;;;;;;43.17;28.07;;;-2.00;99.90;;;;;;4996127;28;20262;-78
2022/01/13 02:12:50;;;;;;;43.03;26.40;;;-2.10;99.90;;;;;;4998609;28;20562;-79
2022/01/13 02:15:32;;;;;;;47.80;28.80;;;-2.10;99.90;;;;;;4995534;28;20254;-77
2022/01/13 02:18:01;;;;;;;42.33;27.37;;;-2.10;99.90;;;;;;4996045;28;20571;-77
2022/01/13 02:20:48;;;;;;;47.47;28.67;;;-2.10;99.90;;;;;;4996589;28;20210;-77
2022/01/13 02:23:27;;;;;;;49.73;29.67;;;-2.00;99.90;;;;;;4997623;28;20656;-77
2022/01/13 02:25:54;;;;;;;46.13;28.27;;;-2.00;99.90;;;;;;4995847;28;20205;-77
2022/01/13 02:28:20;;;;;;;47.47;30.20;;;-2.10;99.90;;;;;;4995607;28;20231;-77
2022/01/13 02:30:47;;;;;;;47.07;28.93;;;-2.20;99.90;;;;;;4995604;28;20204;-77
2022/01/13 02:33:14;;;;;;;49.93;29.50;;;-2.40;99.90;;;;;;4994187;28;20199;-77
2022/01/13 02:35:40;;;;;;;49.33;30.10;;;-2.40;99.90;;;;;;4995763;28;20199;-77
2022/01/13 02:38:12;;;;;;;47.50;29.47;;;-2.40;99.90;;;;;;4999921;28;20204;-78
2022/01/13 02:40:40;;;;;;;47.93;29.33;;;-2.40;99.90;;;;;;5008405;28;20567;-79
2022/01/13 02:43:08;;;;;;;54.13;31.33;;;-2.40;99.90;;;;;;5008080;28;20209;-78
2022/01/13 02:45:38;;;;;;;48.20;29.87;;;-2.40;99.90;;;;;;5005631;28;20200;-76
2022/01/13 02:48:27;;;;;;;48.00;29.77;;;-2.50;99.90;;;;;;4999180;28;20224;-77
2022/01/13 02:50:54;;;;;;;49.77;29.27;;;-2.50;99.90;;;;;;4999369;28;20207;-78
2022/01/13 02:53:23;;;;;;;50.03;29.80;;;-2.40;99.90;;;;;;4995477;28;20211;-77
2022/01/13 02:55:54;;;;;;;47.57;30.27;;;-2.30;99.90;;;;;;4995152;28;20656;-77
2022/01/13 02:58:21;;;;;;;48.53;29.30;;;-2.30;99.90;;;;;;4996190;28;20227;-77
2022/01/13 03:00:48;;;;;;;52.27;30.73;;;-2.30;99.90;;;;;;4996898;28;20208;-78
2022/01/13 03:03:14;;;;;;;49.20;30.53;;;-2.10;99.90;;;;;;4995283;28;20204;-77
2022/01/13 03:05:42;;;;;;;50.23;29.67;;;-2.00;99.90;;;;;;4995603;28;20207;-77
2022/01/13 03:08:10;;;;;;;48.00;30.03;;;-2.00;99.90;;;;;;4995666;28;20266;-78
2022/01/13 03:10:39;;;;;;;47.87;29.73;;;-2.00;99.90;;;;;;4998368;28;20199;-77
2022/01/13 03:13:07;;;;;;;52.23;30.80;;;-2.10;99.90;;;;;;4998154;28;20226;-78
2022/01/13 03:15:35;;;;;;;48.43;30.60;;;-2.10;99.90;;;;;;4998945;28;20203;-78
2022/01/13 03:18:01;;;;;;;47.23;29.43;;;-2.10;99.90;;;;;;4994842;28;20263;-77
2022/01/13 03:20:28;;;;;;;47.37;29.80;;;-2.20;99.90;;;;;;4994857;28;20265;-77
2022/01/13 03:22:55;;;;;;;45.60;28.37;;;-2.20;99.90;;;;;;4998275;28;20210;-78
2022/01/13 03:25:23;;;;;;;49.37;29.80;;;-2.20;99.90;;;;;;4995378;28;20200;-77
2022/01/13 03:27:57;;;;;;;49.63;29.00;;;-2.30;99.90;;;;;;4993780;28;20288;-77
2022/01/13 03:30:24;;;;;;;47.03;29.13;;;-2.30;99.90;;;;;;4994722;28;20188;-77
2022/01/13 03:32:50;;;;;;;44.70;28.67;;;-2.30;99.90;;;;;;4994660;28;20199;-78
2022/01/13 03:35:17;;;;;;;52.00;30.90;;;-2.30;99.90;;;;;;4994426;28;20206;-77
2022/01/13 03:37:45;;;;;;;45.70;29.23;;;-2.20;99.90;;;;;;4994400;28;20199;-78
2022/01/13 03:40:13;;;;;;;49.30;29.70;;;-2.10;99.90;;;;;;4994244;28;20196;-78
2022/01/13 03:42:40;;;;;;;48.50;29.03;;;-2.10;99.90;;;;;;4994208;28;20682;-78
2022/01/13 03:45:09;;;;;;;45.67;28.33;;;-2.10;99.90;;;;;;4994480;28;20234;-77
2022/01/13 03:47:36;;;;;;;45.03;29.00;;;-2.10;99.90;;;;;;4995775;28;20225;-78
2022/01/13 03:50:05;;;;;;;47.07;28.00;;;-2.10;99.90;;;;;;4994255;28;20207;-78
2022/01/13 03:53:12;;;;;;;46.77;29.17;;;-2.10;99.90;;;;;;4994088;28;20206;-77
2022/01/13 03:56:26;;;;;;;47.67;27.80;;;-2.10;99.90;;;;;;4994423;28;20206;-77
2022/01/13 03:59:32;;;;;;;43.87;27.73;;;-2.10;99.90;;;;;;4993716;28;20638;-78
2022/01/13 04:02:08;;;;;;;44.00;27.10;;;-2.00;99.90;;;;;;4994763;28;20677;-77
2022/01/13 04:04:37;;;;;;;43.57;28.00;;;-2.00;99.90;;;;;;4994432;28;20196;-77
2022/01/13 04:07:15;;;;;;;44.63;28.10;;;-2.00;99.90;;;;;;4993886;28;20219;-76
2022/01/13 04:10:27;;;;;;;44.17;26.97;;;-2.00;99.90;;;;;;4995290;28;20563;-76
2022/01/13 04:12:57;;;;;;;46.30;29.00;;;-1.90;99.90;;;;;;4994880;28;20203;-79
2022/01/13 04:15:28;;;;;;;47.10;28.90;;;-1.90;99.90;;;;;;4994430;28;20206;-77
2022/01/13 04:17:56;;;;;;;47.47;29.53;;;-1.90;99.90;;;;;;4994100;28;20207;-78
2022/01/13 04:20:23;;;;;;;45.80;28.60;;;-1.90;99.90;;;;;;4995744;28;20204;-78
2022/01/13 04:22:51;;;;;;;46.00;28.70;;;-1.90;99.90;;;;;;5001173;28;20299;-78
2022/01/13 04:25:21;;;;;;;44.67;28.77;;;-1.90;99.90;;;;;;5000920;28;20199;-78
2022/01/13 04:27:49;;;;;;;45.90;28.83;;;-1.90;99.90;;;;;;5001563;28;20229;-78
2022/01/13 04:30:34;;;;;;;45.80;27.70;;;-1.90;99.90;;;;;;4994891;28;20893;-77
2022/01/13 04:33:04;;;;;;;47.17;27.80;;;-1.90;99.90;;;;;;4995624;28;20231;-78
2022/01/13 04:35:31;;;;;;;45.83;28.50;;;-1.90;99.90;;;;;;4994965;28;20211;-79
2022/01/13 04:37:57;;;;;;;43.87;27.13;;;-2.00;99.90;;;;;;4996474;28;20196;-78
2022/01/13 04:40:24;;;;;;;42.10;27.87;;;-2.00;99.90;;;;;;4998422;28;20602;-77
2022/01/13 04:42:54;;;;;;;44.97;28.47;;;-2.10;99.90;;;;;;4998175;28;20204;-77
2022/01/13 04:45:22;;;;;;;43.30;27.77;;;-2.10;99.90;;;;;;4997917;28;20477;-78
2022/01/13 04:47:56;;;;;;;44.07;28.57;;;-2.20;99.90;;;;;;4997998;28;20282;-77
2022/01/13 04:50:25;;;;;;;40.37;25.97;;;-2.30;99.90;;;;;;4998149;28;20200;-78
2022/01/13 04:52:52;;;;;;;45.97;28.50;;;-2.50;99.90;;;;;;4997989;28;20199;-78
2022/01/13 04:55:24;;;;;;;42.57;27.27;;;-2.60;99.90;;;;;;4998502;28;20261;-77
2022/01/13 04:57:55;;;;;;;45.40;27.10;;;-2.70;99.90;;;;;;5000648;28;20262;-78
2022/01/13 05:00:24;;;;;;;47.23;29.10;;;-2.70;99.90;;;;;;5000167;28;20209;-78
2022/01/13 05:02:51;;;;;;;46.03;28.73;;;-2.70;99.90;;;;;;4997210;28;20199;-78
2022/01/13 05:05:18;;;;;;;45.87;28.93;;;-2.80;99.90;;;;;;4998286;28;20206;-78
2022/01/13 05:07:46;;;;;;;44.23;28.47;;;-2.90;99.90;;;;;;4997023;28;20226;-78
2022/01/13 05:10:13;;;;;;;48.70;28.20;;;-3.00;99.90;;;;;;4996828;28;20676;-78
2022/01/13 05:12:42;;;;;;;49.20;27.83;;;-3.00;99.90;;;;;;4997806;28;20198;-78
2022/01/13 05:15:14;;;;;;;47.70;28.73;;;-3.10;99.90;;;;;;4997900;28;20290;-79
2022/01/13 05:20:37;;;;;;;50.13;29.07;;;-3.00;99.90;;;;;;4995192;28;20201;-78
2022/01/13 05:23:05;;;;;;;51.93;29.70;;;-3.10;99.90;;;;;;4997664;28;20291;-79
2022/01/13 05:25:32;;;;;;;48.27;28.30;;;-3.20;99.90;;;;;;4997479;28;20257;-78
2022/01/13 05:27:59;;;;;;;51.60;29.93;;;-3.20;99.90;;;;;;4998323;28;20230;-78
2022/01/13 05:30:26;;;;;;;50.70;29.47;;;-3.20;99.90;;;;;;4997210;28;20205;-78
2022/01/13 05:32:53;;;;;;;55.40;31.17;;;-3.20;99.90;;;;;;4997568;28;20265;-78
2022/01/13 05:35:20;;;;;;;57.00;31.87;;;-3.10;99.90;;;;;;4997530;28;20678;-83
2022/01/13 05:37:47;;;;;;;58.43;32.17;;;-3.10;99.90;;;;;;4998454;28;20205;-78
2022/01/13 05:40:15;;;;;;;58.43;32.87;;;-3.10;99.90;;;;;;4999931;28;20248;-78
2022/01/13 05:42:42;;;;;;;54.60;31.87;;;-3.10;99.90;;;;;;4997628;28;20201;-79
2022/01/13 05:45:15;;;;;;;51.97;30.67;;;-3.20;99.90;;;;;;5001823;28;20217;-80
2022/01/13 05:47:42;;;;;;;58.50;31.07;;;-3.30;99.90;;;;;;4997783;28;20222;-77
2022/01/13 05:50:12;;;;;;;59.57;31.43;;;-3.30;99.90;;;;;;4996873;28;20235;-79
2022/01/13 05:52:39;;;;;;;60.27;32.47;;;-3.40;99.90;;;;;;5000485;28;20205;-77
2022/01/13 05:55:07;;;;;;;58.80;33.17;;;-3.40;99.90;;;;;;4999733;28;20202;-75
2022/01/13 05:57:35;;;;;;;69.07;34.57;;;-3.50;99.90;;;;;;4996491;28;20241;-74
2022/01/13 06:00:02;;;;;;;63.83;33.07;;;-3.50;99.90;;;;;;4996320;28;20647;-77
2022/01/13 06:02:28;;;;;;;58.13;33.17;;;-3.40;99.90;;;;;;4996303;28;20208;-78
2022/01/13 06:04:55;;;;;;;65.67;35.83;;;-3.50;99.90;;;;;;4996805;28;20265;-77
2022/01/13 06:07:22;;;;;;;66.53;35.30;;;-3.40;99.90;;;;;;4996669;28;20244;-77
2022/01/13 06:09:48;;;;;;;65.00;34.07;;;-3.50;99.90;;;;;;4998396;28;20602;-77
2022/01/13 06:12:16;;;;;;;58.87;33.03;;;-3.50;99.90;;;;;;4996320;28;20278;-76
2022/01/13 06:14:49;;;;;;;61.87;33.07;;;-3.50;99.90;;;;;;5000491;28;20300;-79
2022/01/13 06:17:15;;;;;;;67.27;35.17;;;-3.60;99.90;;;;;;5093851;23;20210;-78
2022/01/13 06:19:42;;;;;;;61.53;33.33;;;-3.60;99.90;;;;;;5039432;28;20236;-75
2022/01/13 06:22:09;;;;;;;62.93;33.93;;;-3.70;99.90;;;;;;5040112;28;20207;-77
2022/01/13 06:24:35;;;;;;;64.33;35.33;;;-3.80;99.90;;;;;;5035413;28;20186;-75
2022/01/13 06:27:02;;;;;;;66.13;35.83;;;-3.70;99.90;;;;;;5040037;28;20188;-76
2022/01/13 06:29:29;;;;;;;59.93;32.93;;;-3.70;99.90;;;;;;5039876;28;20220;-76
2022/01/13 06:31:57;;;;;;;62.70;34.37;;;-3.70;99.90;;;;;;5039985;28;20215;-77
2022/01/13 06:34:24;;;;;;;66.53;35.33;;;-3.80;99.90;;;;;;5032261;28;20267;-75
2022/01/13 06:36:50;;;;;;;63.77;34.97;;;-3.90;99.90;;;;;;5040069;28;20265;-75
2022/01/13 06:39:17;;;;;;;69.57;38.03;;;-3.90;99.90;;;;;;5040189;28;20188;-75
2022/01/13 06:41:43;;;;;;;71.73;38.40;;;-3.90;99.90;;;;;;5040031;28;20208;-75
2022/01/13 06:44:10;;;;;;;69.00;35.83;;;-3.90;99.90;;;;;;5030186;28;20205;-76
2022/01/13 06:46:41;;;;;;;69.77;38.00;;;-3.80;99.90;;;;;;5026726;28;20203;-78
2022/01/13 06:49:10;;;;;;;65.63;37.23;;;-3.70;99.90;;;;;;5026501;28;20288;-77
2022/01/13 06:51:37;;;;;;;70.97;38.20;;;-3.70;99.90;;;;;;5015881;28;20208;-76
2022/01/13 06:54:03;;;;;;;73.83;38.80;;;-3.70;99.90;;;;;;5012882;28;20204;-77
2022/01/13 06:56:31;;;;;;;70.13;38.30;;;-3.50;99.90;;;;;;5012514;28;20273;-75
2022/01/13 06:58:57;;;;;;;73.17;39.20;;;-3.50;99.90;;;;;;5013234;28;20211;-75
2022/01/13 07:01:24;;;;;;;73.80;37.53;;;-3.50;99.90;;;;;;5012763;28;20574;-77
2022/01/13 07:03:51;;;;;;;69.07;36.63;;;-3.40;99.90;;;;;;5021296;28;20196;-76
2022/01/13 07:06:19;;;;;;;70.73;36.73;;;-3.40;99.90;;;;;;5014397;28;20209;-77
2022/01/13 07:08:46;;;;;;;69.53;36.97;;;-3.40;99.90;;;;;;5012997;28;20273;-76
2022/01/13 07:11:12;;;;;;;71.60;37.33;;;-3.40;99.90;;;;;;5014731;28;20646;-77
2022/01/13 07:13:39;;;;;;;67.57;36.53;;;-3.40;99.90;;;;;;5016794;28;20210;-76
2022/01/13 07:16:06;;;;;;;65.80;35.33;;;-3.40;99.90;;;;;;5013528;28;20254;-77
2022/01/13 07:18:38;;;;;;;69.70;37.30;;;-3.40;99.90;;;;;;5012844;28;20263;-76
2022/01/13 07:21:05;;;;;;;65.83;35.77;;;-3.40;99.90;;;;;;5018579;28;20208;-77
2022/01/13 07:23:33;;;;;;;60.80;33.00;;;-3.40;99.90;;;;;;5011897;28;20197;-76
2022/01/13 07:26:02;;;;;;;69.33;36.77;;;-3.40;99.90;;;;;;5012254;28;20205;-75
2022/01/13 07:28:28;;;;;;;62.90;33.83;;;-3.40;99.90;;;;;;5014533;28;20227;-80
2022/01/13 07:30:55;;;;;;;66.60;35.10;;;-3.30;99.90;;;;;;5018727;28;20236;-75
2022/01/13 07:33:22;;;;;;;68.60;36.37;;;-3.20;99.90;;;;;;5019044;28;20206;-76
2022/01/13 07:35:49;;;;;;;65.93;35.50;;;-3.20;99.90;;;;;;5018104;28;20253;-77
2022/01/13 07:38:15;;;;;;;70.33;36.77;;;-3.10;99.90;;;;;;5018288;28;20205;-76
2022/01/13 07:40:43;;;;;;;65.73;36.50;;;-3.10;99.90;;;;;;5017336;28;20251;-76
2022/01/13 07:43:10;;;;;;;68.23;38.43;;;-3.10;99.90;;;;;;5015612;28;20210;-76
2022/01/13 07:45:37;;;;;;;77.47;37.77;;;-3.00;99.90;;;;;;5014657;28;20213;-75
2022/01/13 07:48:04;;;;;;;69.13;37.50;;;-3.00;99.90;;;;;;5015054;28;20202;-77
2022/01/13 07:50:30;;;;;;;68.07;37.17;;;-2.90;99.90;;;;;;5013380;28;20236;-77
2022/01/13 07:52:57;;;;;;;70.10;37.77;;;-2.90;99.90;;;;;;5013968;28;20662;-76
2022/01/13 07:55:25;;;;;;;65.13;36.33;;;-2.90;99.90;;;;;;5013555;28;20233;-76
2022/01/13 07:57:53;;;;;;;67.27;36.50;;;-2.90;99.90;;;;;;5012878;28;20202;-76
2022/01/13 08:00:19;;;;;;;61.93;35.50;;;-2.90;99.90;;;;;;5012341;28;20207;-77
2022/01/13 08:02:46;;;;;;;63.37;34.83;;;-2.80;99.90;;;;;;5012440;28;20245;-77
2022/01/13 08:05:13;;;;;;;68.70;36.63;;;-2.80;99.90;;;;;;5012420;28;20662;-77
2022/01/13 08:07:40;;;;;;;65.50;36.43;;;-2.70;99.90;;;;;;5012088;28;20203;-76
2022/01/13 08:10:12;;;;;;;63.80;36.20;;;-2.70;99.90;;;;;;5014602;28;20293;-78
2022/01/13 08:12:40;;;;;;;68.47;36.30;;;-2.70;99.90;;;;;;5013512;28;20657;-76
2022/01/13 08:15:13;;;;;;;71.73;38.90;;;-2.50;99.90;;;;;;5014956;28;20205;-78
2022/01/13 08:20:24;;;;;;;66.30;37.40;;;-2.10;99.90;;;;;;5021208;28;20202;-78
2022/01/13 08:22:51;;;;;;;66.70;37.03;;;-2.00;99.90;;;;;;5021199;28;20226;-77
2022/01/13 08:25:18;;;;;;;61.37;36.17;;;-1.90;99.90;;;;;;5024870;28;20202;-79
2022/01/13 08:27:45;;;;;;;80.03;39.47;;;-1.70;99.90;;;;;;5022599;28;20206;-79
2022/01/13 08:30:18;;;;;;;63.60;37.20;;;-1.60;99.90;;;;;;5026599;28;20679;-80
2022/01/13 08:32:46;;;;;;;63.17;38.63;;;-1.40;99.90;;;;;;5036853;22;20284;-75
2022/01/13 08:35:14;;;;;;;57.10;37.37;;;-1.30;99.90;;;;;;5042263;28;20205;-81
2022/01/13 08:37:41;;;;;;;61.20;35.87;;;-1.20;99.90;;;;;;5041362;28;20265;-76
2022/01/13 08:40:12;;;;;;;56.43;35.80;;;-1.10;99.90;;;;;;5039324;28;20206;-75
2022/01/13 08:42:39;;;;;;;54.00;34.43;;;-1.00;99.90;;;;;;5038247;28;20229;-75
2022/01/13 08:45:08;;;;;;;51.13;32.77;;;-0.90;99.90;;;;;;5039131;28;20225;-76
2022/01/13 08:47:37;;;;;;;51.20;33.07;;;-0.70;99.90;;;;;;5039628;28;20234;-75
2022/01/13 08:50:07;;;;;;;50.00;32.97;;;-0.60;99.90;;;;;;5038391;28;20238;-76
2022/01/13 08:52:37;;;;;;;50.30;32.60;;;-0.50;99.90;;;;;;5037050;28;20209;-76
2022/01/13 08:55:05;;;;;;;46.57;29.93;;;-0.50;99.90;;;;;;5037053;28;20241;-76
2022/01/13 08:57:32;;;;;;;44.43;30.87;;;-0.30;99.90;;;;;;5038512;28;20643;-76
2022/01/13 08:59:59;;;;;;;43.97;27.10;;;-0.20;99.90;;;;;;5036919;28;20245;-76
2022/01/13 09:02:29;;;;;;;37.40;26.27;;;0.00;99.90;;;;;;5038020;28;20202;-77
2022/01/13 09:04:57;;;;;;;35.47;25.80;;;0.20;99.90;;;;;;5038057;28;20233;-76
2022/01/13 09:07:24;;;;;;;41.00;28.83;;;0.40;99.90;;;;;;5038406;28;20203;-75
2022/01/13 09:09:51;;;;;;;34.77;25.20;;;0.70;99.90;;;;;;5040582;28;20277;-74
2022/01/13 09:12:18;;;;;;;35.83;25.53;;;0.80;99.90;;;;;;5039299;28;20195;-76
2022/01/13 09:14:44;;;;;;;38.03;24.57;;;0.90;99.90;;;;;;5038685;28;20210;-77
2022/01/13 09:17:19;;;;;;;33.50;24.30;;;1.00;99.90;;;;;;5040244;28;20205;-76
2022/01/13 09:19:46;;;;;;;31.73;23.70;;;1.00;99.90;;;;;;5041374;28;20201;-75
2022/01/13 09:22:14;;;;;;;35.60;26.73;;;1.20;99.90;;;;;;5040356;28;20207;-76
2022/01/13 09:24:41;;;;;;;35.73;26.37;;;1.50;99.90;;;;;;5040921;28;20198;-77
2022/01/13 09:27:08;;;;;;;31.50;24.73;;;1.70;99.90;;;;;;5044713;28;20206;-75
2022/01/13 09:29:35;;;;;;;32.37;26.33;;;2.00;99.90;;;;;;5046279;28;20230;-76
2022/01/13 09:32:02;;;;;;;32.00;25.60;;;2.10;99.90;;;;;;5044334;28;20206;-76
2022/01/13 09:34:28;;;;;;;31.50;25.43;;;2.10;99.90;;;;;;5027240;28;20238;-75
2022/01/13 09:36:55;;;;;;;31.43;25.47;;;2.40;99.90;;;;;;5023741;28;20554;-77
2022/01/13 09:39:23;;;;;;;32.07;25.17;;;2.70;99.90;;;;;;5024986;28;20254;-76
2022/01/13 09:41:52;;;;;;;32.20;26.13;;;2.80;99.90;;;;;;5023298;28;20246;-77
2022/01/13 09:44:19;;;;;;;35.13;26.67;;;3.10;99.90;;;;;;5018995;28;20290;-77
2022/01/13 09:46:47;;;;;;;28.83;24.63;;;3.30;99.90;;;;;;5017756;28;20206;-76
2022/01/13 09:49:14;;;;;;;29.00;24.97;;;3.20;99.90;;;;;;5017911;28;20588;-77
2022/01/13 09:51:45;;;;;;;30.63;26.80;;;2.80;99.90;;;;;;5021036;28;20207;-77
2022/01/13 09:54:13;;;;;;;28.23;23.27;;;2.90;99.90;;;;;;5018436;28;20203;-76
2022/01/13 09:56:41;;;;;;;29.03;23.20;;;3.00;99.90;;;;;;5019960;28;20263;-76
2022/01/13 09:59:08;;;;;;;27.03;21.93;;;2.70;99.90;;;;;;5022963;28;20207;-75
2022/01/13 10:01:35;;;;;;;27.87;21.67;;;3.30;99.90;;;;;;5024260;28;20207;-76
2022/01/13 10:04:02;;;;;;;27.73;23.07;;;3.80;99.90;;;;;;5026964;28;20246;-76
2022/01/13 10:06:31;;;;;;;28.10;21.83;;;3.20;99.90;;;;;;5027120;28;20235;-76
2022/01/13 10:08:59;;;;;;;25.97;21.47;;;3.30;99.90;;;;;;5028277;28;20219;-76
2022/01/13 10:11:34;;;;;;;22.93;19.00;;;3.70;99.90;;;;;;5028222;28;20594;-76
2022/01/13 10:17:03;;;;;;;22.27;19.30;;;4.60;99.90;;;;;;5014509;28;20282;-77
2022/01/13 10:19:32;;;;;;;24.67;20.27;;;4.80;99.90;;;;;;5015042;28;20551;-77
2022/01/13 10:22:00;;;;;;;25.27;20.47;;;4.50;99.90;;;;;;5017045;28;20214;-77
2022/01/13 10:24:29;;;;;;;23.60;19.00;;;4.50;99.90;;;;;;5017394;28;20199;-77
2022/01/13 10:27:01;;;;;;;20.67;17.57;;;4.00;99.90;;;;;;5019033;28;20203;-76
2022/01/13 10:29:41;;;;;;;23.37;19.07;;;3.60;99.90;;;;;;5018328;28;20228;-76
2022/01/13 10:32:08;;;;;;;23.20;18.70;;;3.70;99.90;;;;;;5020659;28;20227;-76
2022/01/13 10:34:38;;;;;;;22.93;18.47;;;4.00;99.90;;;;;;5019329;28;20239;-76
2022/01/13 10:37:10;;;;;;;19.00;15.10;;;4.10;99.90;;;;;;5017436;28;20199;-76
2022/01/13 10:39:52;;;;;;;23.00;16.97;;;3.80;99.90;;;;;;5017894;28;20210;-76
2022/01/13 10:45:30;;;;;;;17.63;14.13;;;3.40;99.90;;;;;;5021258;28;20205;-75
2022/01/13 10:47:58;;;;;;;20.07;15.20;;;3.50;99.90;;;;;;5024018;28;20205;-75
2022/01/13 10:50:28;;;;;;;21.97;16.53;;;3.10;99.90;;;;;;5024515;28;20233;-76
2022/01/13 10:53:02;;;;;;;21.03;15.33;;;3.20;99.90;;;;;;5024568;28;20265;-75
2022/01/13 10:55:29;;;;;;;19.57;15.40;;;3.30;99.90;;;;;;5022557;28;20208;-76
2022/01/13 10:57:56;;;;;;;22.33;17.17;;;3.10;99.90;;;;;;5024586;28;20205;-75
2022/01/13 11:00:32;;;;;;;22.33;16.90;;;3.00;99.90;;;;;;5024416;28;20233;-76
2022/01/13 11:03:17;;;;;;;24.13;18.27;;;3.00;99.90;;;;;;5021076;28;20570;-76
2022/01/13 11:05:48;;;;;;;22.67;16.93;;;2.90;99.90;;;;;;5022234;28;20202;-76
2022/01/13 11:08:25;;;;;;;26.17;19.37;;;2.80;99.90;;;;;;5021461;28;20205;-76
2022/01/13 11:10:54;;;;;;;26.17;19.13;;;2.50;99.90;;;;;;5021064;28;20708;-76
2022/01/13 11:13:21;;;;;;;25.07;18.47;;;2.50;99.90;;;;;;5021806;28;20202;-76
2022/01/13 11:15:55;;;;;;;26.03;17.13;;;2.90;99.90;;;;;;5022886;28;20290;-76
2022/01/13 11:18:24;;;;;;;23.57;17.53;;;2.90;99.90;;;;;;5021460;28;20198;-76
2022/01/13 11:20:51;;;;;;;19.40;15.23;;;2.80;99.90;;;;;;5022126;28;20211;-76
2022/01/13 11:23:19;;;;;;;20.97;14.80;;;3.00;99.90;;;;;;5023470;28;20598;-75
2022/01/13 11:25:47;;;;;;;22.87;17.30;;;3.20;99.90;;;;;;5023022;28;20248;-75
2022/01/13 11:28:15;;;;;;;25.87;19.00;;;3.20;99.90;;;;;;5023071;28;20210;-75
2022/01/13 11:30:42;;;;;;;22.70;16.50;;;3.00;99.90;;;;;;5020811;28;20773;-76
2022/01/13 11:33:10;;;;;;;29.60;20.43;;;2.60;99.90;;;;;;5028405;28;20235;-75
2022/01/13 11:35:44;;;;;;;26.53;18.67;;;2.50;99.90;;;;;;5040259;28;20210;-75
2022/01/13 11:38:13;;;;;;;29.00;19.03;;;2.50;99.90;;;;;;5040169;28;20200;-75
2022/01/13 11:40:43;;;;;;;25.20;18.87;;;2.50;99.90;;;;;;5042505;28;20246;-76
2022/01/13 11:43:27;;;;;;;26.77;19.17;;;2.80;99.90;;;;;;5043249;28;20200;-76
2022/01/13 11:45:54;;;;;;;26.90;18.80;;;3.00;99.90;;;;;;5041378;28;20205;-75
2022/01/13 11:48:24;;;;;;;24.17;17.93;;;3.40;99.90;;;;;;5038592;28;20259;-76
2022/01/13 11:50:55;;;;;;;24.77;18.47;;;3.40;99.90;;;;;;5039176;28;20304;-76
2022/01/13 11:53:28;;;;;;;27.03;19.60;;;3.10;99.90;;;;;;5038262;28;20264;-76
2022/01/13 11:56:01;;;;;;;29.40;19.53;;;3.00;99.90;;;;;;5037912;28;20231;-75
2022/01/13 11:58:33;;;;;;;27.83;19.93;;;3.10;99.90;;;;;;5037895;28;20662;-76
2022/01/13 12:01:17;;;;;;;27.23;20.43;;;3.20;99.90;;;;;;5037642;28;20255;-75
2022/01/13 12:03:49;;;;;;;28.87;19.73;;;3.30;99.90;;;;;;5035746;28;20539;-77
2022/01/13 12:06:40;;;;;;;25.47;19.13;;;3.40;99.90;;;;;;5037044;28;20208;-75
2022/01/13 12:09:08;;;;;;;27.73;19.50;;;3.60;99.90;;;;;;5036470;28;20201;-75
2022/01/13 12:11:40;;;;;;;27.57;20.77;;;3.70;99.90;;;;;;5035748;28;20205;-75
2022/01/13 12:14:39;;;;;;;28.17;22.33;;;4.00;99.90;;;;;;5037638;28;20205;-77
2022/01/13 12:17:09;;;;;;;30.10;20.07;;;3.70;99.90;;;;;;5018054;28;20199;-77
2022/01/13 12:19:41;;;;;;;27.50;19.27;;;3.60;99.90;;;;;;5036221;28;20240;-77
2022/01/13 12:22:11;;;;;;;31.30;21.47;;;3.50;99.90;;;;;;5035754;28;20205;-77
2022/01/13 12:24:47;;;;;;;28.97;20.00;;;4.10;99.90;;;;;;5037398;28;20741;-76
2022/01/13 12:27:14;;;;;;;29.67;20.73;;;3.90;99.90;;;;;;5037240;28;20325;-77
2022/01/13 12:29:45;;;;;;;27.50;19.80;;;3.50;99.90;;;;;;5036599;28;20222;-77
2022/01/13 12:32:14;;;;;;;28.10;19.13;;;3.70;99.90;;;;;;5037666;28;20205;-76
2022/01/13 12:35:00;;;;;;;30.00;20.40;;;3.90;99.90;;;;;;5038594;28;20276;-77
2022/01/13 12:37:28;;;;;;;27.23;19.97;;;4.00;99.90;;;;;;5041910;28;20245;-76
2022/01/13 12:39:59;;;;;;;27.30;19.50;;;4.10;99.90;;;;;;5038960;28;20206;-76
2022/01/13 12:42:31;;;;;;;28.87;19.87;;;4.00;99.90;;;;;;5036363;28;20186;-76
2022/01/13 12:47:43;;;;;;;24.37;18.73;;;4.00;99.90;;;;;;5035949;28;20258;-76
2022/01/13 12:50:21;;;;;;;27.37;19.97;;;4.20;99.90;;;;;;5035344;28;20223;-75
2022/01/13 12:52:48;;;;;;;29.03;20.60;;;4.00;99.90;;;;;;5035068;28;20202;-76
2022/01/13 12:55:15;;;;;;;26.40;19.67;;;6.10;99.90;;;;;;5035335;28;20198;-77
2022/01/13 12:57:50;;;;;;;25.03;18.30;;;6.50;99.90;;;;;;5034570;28;20608;-77
2022/01/13 13:00:20;;;;;;;24.13;17.77;;;8.00;99.90;;;;;;5037402;28;20709;-76